sensor_id;sensor_type;location;lat;lon;timestamp;pressure;altitude;pressure_sealevel;temperature;humidity
39267;BME280;24967;51.154;13.812;2023-03-16T00:01:45;100031.09;;;1.23;71.51
39267;BME280;24967;51.154;13.812;2023-03-16T00:04:12;100033.81;;;1.22;71.56
39267;BME280;24967;51.154;13.812;2023-03-16T00:06:38;100029.31;;;1.24;71.44
39267;BME280;24967;51.154;13.812;2023-03-16T00:09:05;100031.19;;;1.22;71.53
39267;BME280;24967;51.154;13.812;2023-03-16T00:11:31;100028.78;;;1.17;71.39
39267;BME280;24967;51.154;13.812;2023-03-16T00:13:57;100034.81;;;1.19;71.67
39267;BME280;24967;51.154;13.812;2023-03-16T00:16:25;100036.56;;;1.19;71.23
39267;BME280;24967;51.154;13.812;2023-03-16T00:18:52;100029.63;;;1.18;71.86
39267;BME280;24967;51.154;13.812;2023-03-16T00:21:18;100031.41;;;1.17;71.66
39267;BME280;24967;51.154;13.812;2023-03-16T00:23:45;100026.25;;;1.16;71.93
39267;BME280;24967;51.154;13.812;2023-03-16T00:26:11;100030.56;;;1.17;71.56
39267;BME280;24967;51.154;13.812;2023-03-16T00:28:38;100033.28;;;1.15;71.74
39267;BME280;24967;51.154;13.812;2023-03-16T00:31:09;100022.88;;;1.13;71.53
39267;BME280;24967;51.154;13.812;2023-03-16T00:33:37;100023.03;;;1.10;71.72
39267;BME280;24967;51.154;13.812;2023-03-16T00:36:07;100030.03;;;1.10;71.36
39267;BME280;24967;51.154;13.812;2023-03-16T00:38:37;100025.69;;;1.09;71.75
39267;BME280;24967;51.154;13.812;2023-03-16T00:41:06;100027.41;;;1.10;71.81
39267;BME280;24967;51.154;13.812;2023-03-16T00:43:35;100030.03;;;1.10;71.48
39267;BME280;24967;51.154;13.812;2023-03-16T00:46:06;100035.13;;;1.13;71.59
39267;BME280;24967;51.154;13.812;2023-03-16T00:48:33;100032.56;;;1.11;71.45
39267;BME280;24967;51.154;13.812;2023-03-16T00:51:01;100036.13;;;1.10;71.87
39267;BME280;24967;51.154;13.812;2023-03-16T00:53:28;100042.34;;;1.08;71.18
39267;BME280;24967;51.154;13.812;2023-03-16T00:55:55;100042.50;;;1.05;71.43
39267;BME280;24967;51.154;13.812;2023-03-16T00:58:22;100043.50;;;1.02;71.54
39267;BME280;24967;51.154;13.812;2023-03-16T01:00:49;100041.28;;;0.95;71.37
39267;BME280;24967;51.154;13.812;2023-03-16T01:03:18;100042.19;;;0.94;71.42
39267;BME280;24967;51.154;13.812;2023-03-16T01:05:45;100037.13;;;0.90;71.50
39267;BME280;24967;51.154;13.812;2023-03-16T01:08:14;100043.38;;;0.88;71.77
39267;BME280;24967;51.154;13.812;2023-03-16T01:10:41;100045.22;;;0.86;71.73
39267;BME280;24967;51.154;13.812;2023-03-16T01:13:09;100049.75;;;0.82;71.73
39267;BME280;24967;51.154;13.812;2023-03-16T01:15:38;100048.75;;;0.85;71.77
39267;BME280;24967;51.154;13.812;2023-03-16T01:18:05;100055.00;;;0.82;72.04
39267;BME280;24967;51.154;13.812;2023-03-16T01:20:32;100046.50;;;0.77;72.14
39267;BME280;24967;51.154;13.812;2023-03-16T01:22:59;100057.91;;;0.76;72.19
39267;BME280;24967;51.154;13.812;2023-03-16T01:25:28;100059.69;;;0.76;72.08
39267;BME280;24967;51.154;13.812;2023-03-16T01:27:55;100067.59;;;0.74;72.16
39267;BME280;24967;51.154;13.812;2023-03-16T01:30:22;100073.53;;;0.78;72.20
39267;BME280;24967;51.154;13.812;2023-03-16T01:32:49;100071.84;;;0.77;72.19
39267;BME280;24967;51.154;13.812;2023-03-16T01:35:18;100071.84;;;0.77;72.17
39267;BME280;24967;51.154;13.812;2023-03-16T01:37:46;100073.53;;;0.78;72.17
39267;BME280;24967;51.154;13.812;2023-03-16T01:40:13;100077.13;;;0.75;71.95
39267;BME280;24967;51.154;13.812;2023-03-16T01:42:45;100079.75;;;0.75;72.27
39267;BME280;24967;51.154;13.812;2023-03-16T01:48:17;100072.28;;;0.67;72.19
39267;BME280;24967;51.154;13.812;2023-03-16T01:50:44;100073.34;;;0.63;72.18
39267;BME280;24967;51.154;13.812;2023-03-16T01:53:11;100074.22;;;0.64;72.38
39267;BME280;24967;51.154;13.812;2023-03-16T01:55:38;100069.88;;;0.63;72.28
39267;BME280;24967;51.154;13.812;2023-03-16T01:58:08;100064.81;;;0.60;72.35
39267;BME280;24967;51.154;13.812;2023-03-16T02:00:36;100068.69;;;0.70;72.24
39267;BME280;24967;51.154;13.812;2023-03-16T02:03:06;100067.66;;;0.73;72.11
39267;BME280;24967;51.154;13.812;2023-03-16T02:05:37;100070.53;;;0.68;72.16
39267;BME280;24967;51.154;13.812;2023-03-16T02:08:07;100069.00;;;0.64;72.85
39267;BME280;24967;51.154;13.812;2023-03-16T02:10:37;100070.03;;;0.60;72.83
39267;BME280;24967;51.154;13.812;2023-03-16T02:13:07;100070.13;;;0.58;73.08
39267;BME280;24967;51.154;13.812;2023-03-16T02:15:34;100072.94;;;0.54;72.82
39267;BME280;24967;51.154;13.812;2023-03-16T02:18:02;100069.50;;;0.53;73.04
39267;BME280;24967;51.154;13.812;2023-03-16T02:20:36;100066.25;;;0.48;72.62
39267;BME280;24967;51.154;13.812;2023-03-16T02:23:09;100072.41;;;0.47;73.14
39267;BME280;24967;51.154;13.812;2023-03-16T02:25:46;100065.63;;;0.43;73.17
39267;BME280;24967;51.154;13.812;2023-03-16T02:28:24;100069.78;;;0.47;73.23
39267;BME280;24967;51.154;13.812;2023-03-16T02:30:54;100068.09;;;0.46;73.76
39267;BME280;24967;51.154;13.812;2023-03-16T02:33:21;100071.56;;;0.47;73.83
39267;BME280;24967;51.154;13.812;2023-03-16T02:35:49;100073.34;;;0.46;73.58
39267;BME280;24967;51.154;13.812;2023-03-16T02:38:15;100076.78;;;0.47;73.58
39267;BME280;24967;51.154;13.812;2023-03-16T02:40:42;100076.72;;;0.48;73.12
39267;BME280;24967;51.154;13.812;2023-03-16T02:43:12;100075.97;;;0.46;73.30
39267;BME280;24967;51.154;13.812;2023-03-16T02:45:42;100075.25;;;0.42;73.23
39267;BME280;24967;51.154;13.812;2023-03-16T02:48:16;100073.63;;;0.40;73.48
39267;BME280;24967;51.154;13.812;2023-03-16T02:50:48;100074.78;;;0.34;73.34
39267;BME280;24967;51.154;13.812;2023-03-16T02:53:15;100067.81;;;0.33;73.43
39267;BME280;24967;51.154;13.812;2023-03-16T02:55:42;100075.66;;;0.33;73.71
39267;BME280;24967;51.154;13.812;2023-03-16T02:58:10;100074.06;;;0.31;73.75
39267;BME280;24967;51.154;13.812;2023-03-16T03:00:37;100083.50;;;0.33;73.63
39267;BME280;24967;51.154;13.812;2023-03-16T03:03:04;100087.00;;;0.34;73.42
39267;BME280;24967;51.154;13.812;2023-03-16T03:05:34;100076.59;;;0.32;74.11
39267;BME280;24967;51.154;13.812;2023-03-16T03:08:00;100070.66;;;0.29;74.42
39267;BME280;24967;51.154;13.812;2023-03-16T03:10:27;100088.84;;;0.32;74.85
39267;BME280;24967;51.154;13.812;2023-03-16T03:12:53;100076.59;;;0.32;74.74
39267;BME280;24967;51.154;13.812;2023-03-16T03:15:22;100081.63;;;0.37;74.96
39267;BME280;24967;51.154;13.812;2023-03-16T03:17:49;100082.53;;;0.36;75.15
39267;BME280;24967;51.154;13.812;2023-03-16T03:20:16;100074.91;;;0.31;75.54
39267;BME280;24967;51.154;13.812;2023-03-16T03:22:46;100079.84;;;0.37;75.77
39267;BME280;24967;51.154;13.812;2023-03-16T03:25:15;100071.31;;;0.34;75.67
39267;BME280;24967;51.154;13.812;2023-03-16T03:27:43;100075.47;;;0.38;75.45
39267;BME280;24967;51.154;13.812;2023-03-16T03:30:12;100079.50;;;0.62;74.75
39267;BME280;24967;51.154;13.812;2023-03-16T03:32:39;100080.25;;;0.47;75.54
39267;BME280;24967;51.154;13.812;2023-03-16T03:35:06;100087.22;;;0.65;75.40
39267;BME280;24967;51.154;13.812;2023-03-16T03:37:36;100089.03;;;0.63;75.46
39267;BME280;24967;51.154;13.812;2023-03-16T03:40:05;100086.84;;;0.73;75.09
39267;BME280;24967;51.154;13.812;2023-03-16T03:42:36;100091.59;;;0.65;75.10
39267;BME280;24967;51.154;13.812;2023-03-16T03:45:02;100094.66;;;0.56;75.47
39267;BME280;24967;51.154;13.812;2023-03-16T03:47:29;100087.81;;;0.53;75.24
39267;BME280;24967;51.154;13.812;2023-03-16T03:49:56;100096.16;;;0.61;75.24
39267;BME280;24967;51.154;13.812;2023-03-16T03:52:22;100091.22;;;0.55;75.21
39267;BME280;24967;51.154;13.812;2023-03-16T03:54:49;100101.88;;;0.51;75.07
39267;BME280;24967;51.154;13.812;2023-03-16T03:57:17;100104.72;;;0.46;75.18
39267;BME280;24967;51.154;13.812;2023-03-16T03:59:43;100099.66;;;0.43;75.24
39267;BME280;24967;51.154;13.812;2023-03-16T04:02:10;100109.31;;;0.41;75.31
39267;BME280;24967;51.154;13.812;2023-03-16T04:04:37;100105.78;;;0.42;75.39
39267;BME280;24967;51.154;13.812;2023-03-16T04:07:04;100104.72;;;0.46;75.26
39267;BME280;24967;51.154;13.812;2023-03-16T04:09:31;100109.88;;;0.48;76.10
39267;BME280;24967;51.154;13.812;2023-03-16T04:11:58;100109.97;;;0.46;76.69
39267;BME280;24967;51.154;13.812;2023-03-16T04:14:26;100102.97;;;0.47;76.33
39267;BME280;24967;51.154;13.812;2023-03-16T04:16:52;100106.41;;;0.47;76.23
39267;BME280;24967;51.154;13.812;2023-03-16T04:19:19;100108.38;;;0.42;76.66
39267;BME280;24967;51.154;13.812;2023-03-16T04:21:45;100094.56;;;0.40;76.45
39267;BME280;24967;51.154;13.812;2023-03-16T04:24:12;100103.31;;;0.39;76.49
39267;BME280;24967;51.154;13.812;2023-03-16T04:26:39;100095.47;;;0.39;76.75
39267;BME280;24967;51.154;13.812;2023-03-16T04:29:05;100105.31;;;0.34;76.86
39267;BME280;24967;51.154;13.812;2023-03-16T04:31:33;100103.94;;;0.44;76.65
39267;BME280;24967;51.154;13.812;2023-03-16T04:33:59;100110.47;;;0.35;76.54
39267;BME280;24967;51.154;13.812;2023-03-16T04:36:26;100109.63;;;0.35;77.27
39267;BME280;24967;51.154;13.812;2023-03-16T04:38:53;100107.06;;;0.14;78.42
39267;BME280;24967;51.154;13.812;2023-03-16T04:41:19;100108.91;;;0.31;78.00
39267;BME280;24967;51.154;13.812;2023-03-16T04:43:46;100108.69;;;0.36;77.82
39267;BME280;24967;51.154;13.812;2023-03-16T04:46:12;100104.22;;;0.38;77.72
39267;BME280;24967;51.154;13.812;2023-03-16T04:48:40;100104.88;;;0.43;77.27
39267;BME280;24967;51.154;13.812;2023-03-16T04:51:06;100103.81;;;0.47;77.31
39267;BME280;24967;51.154;13.812;2023-03-16T04:53:33;100106.84;;;0.38;77.20
39267;BME280;24967;51.154;13.812;2023-03-16T04:56:00;100101.56;;;0.39;77.05
39267;BME280;24967;51.154;13.812;2023-03-16T04:58:28;100102.25;;;0.43;76.88
39267;BME280;24967;51.154;13.812;2023-03-16T05:00:54;100106.66;;;0.42;76.73
39267;BME280;24967;51.154;13.812;2023-03-16T05:03:21;100107.63;;;0.40;76.55
39267;BME280;24967;51.154;13.812;2023-03-16T05:05:49;100100.69;;;0.39;76.43
39267;BME280;24967;51.154;13.812;2023-03-16T05:08:16;100112.09;;;0.38;76.30
39267;BME280;24967;51.154;13.812;2023-03-16T05:10:43;100101.69;;;0.36;76.10
39267;BME280;24967;51.154;13.812;2023-03-16T05:13:12;100109.63;;;0.35;76.00
39267;BME280;24967;51.154;13.812;2023-03-16T05:15:38;100122.69;;;0.35;75.80
39267;BME280;24967;51.154;13.812;2023-03-16T05:18:05;100114.19;;;0.30;75.76
39267;BME280;24967;51.154;13.812;2023-03-16T05:20:31;100119.44;;;0.30;75.63
39267;BME280;24967;51.154;13.812;2023-03-16T05:22:59;100115.97;;;0.29;75.73
39267;BME280;24967;51.154;13.812;2023-03-16T05:25:25;100111.72;;;0.27;75.41
39267;BME280;24967;51.154;13.812;2023-03-16T05:27:52;100121.34;;;0.26;75.47
39267;BME280;24967;51.154;13.812;2023-03-16T05:30:19;100120.41;;;0.27;75.35
39267;BME280;24967;51.154;13.812;2023-03-16T05:32:46;100129.13;;;0.28;75.37
39267;BME280;24967;51.154;13.812;2023-03-16T05:35:13;100125.38;;;0.14;74.58
39267;BME280;24967;51.154;13.812;2023-03-16T05:37:40;100127.97;;;0.14;74.41
39267;BME280;24967;51.154;13.812;2023-03-16T05:40:11;100131.59;;;0.12;74.39
39267;BME280;24967;51.154;13.812;2023-03-16T05:42:42;100127.22;;;0.12;74.12
39267;BME280;24967;51.154;13.812;2023-03-16T05:45:10;100131.59;;;0.12;74.52
39267;BME280;24967;51.154;13.812;2023-03-16T05:47:38;100134.84;;;0.17;74.42
39267;BME280;24967;51.154;13.812;2023-03-16T05:50:07;100133.03;;;0.19;74.68
39267;BME280;24967;51.154;13.812;2023-03-16T05:52:35;100140.91;;;0.17;74.55
39267;BME280;24967;51.154;13.812;2023-03-16T05:55:02;100134.00;;;0.16;74.72
39267;BME280;24967;51.154;13.812;2023-03-16T05:57:31;100137.53;;;0.15;74.71
39267;BME280;24967;51.154;13.812;2023-03-16T05:59:58;100141.75;;;0.18;74.60
39267;BME280;24967;51.154;13.812;2023-03-16T06:02:26;100147.78;;;0.20;74.51
39267;BME280;24967;51.154;13.812;2023-03-16T06:04:52;100139.00;;;0.21;74.56
39267;BME280;24967;51.154;13.812;2023-03-16T06:07:19;100141.91;;;0.15;74.68
39267;BME280;24967;51.154;13.812;2023-03-16T06:09:46;100141.41;;;0.07;75.47
39267;BME280;24967;51.154;13.812;2023-03-16T06:12:13;100145.59;;;0.11;75.80
39267;BME280;24967;51.154;13.812;2023-03-16T06:14:41;100153.84;;;0.20;75.68
39267;BME280;24967;51.154;13.812;2023-03-16T06:17:07;100146.72;;;0.24;76.33
39267;BME280;24967;51.154;13.812;2023-03-16T06:19:34;100148.97;;;0.32;76.47
39267;BME280;24967;51.154;13.812;2023-03-16T06:22:00;100145.38;;;0.34;76.53
39267;BME280;24967;51.154;13.812;2023-03-16T06:24:27;100146.94;;;0.38;76.70
39267;BME280;24967;51.154;13.812;2023-03-16T06:26:53;100147.06;;;0.35;77.15
39267;BME280;24967;51.154;13.812;2023-03-16T06:29:20;100146.09;;;0.38;77.97
39267;BME280;24967;51.154;13.812;2023-03-16T06:31:47;100150.19;;;0.43;77.79
39267;BME280;24967;51.154;13.812;2023-03-16T06:34:15;100147.56;;;0.43;78.32
39267;BME280;24967;51.154;13.812;2023-03-16T06:36:41;100144.69;;;0.31;79.93
39267;BME280;24967;51.154;13.812;2023-03-16T06:39:08;100152.59;;;0.29;81.10
39267;BME280;24967;51.154;13.812;2023-03-16T06:41:35;100151.31;;;0.38;81.38
39267;BME280;24967;51.154;13.812;2023-03-16T06:44:02;100151.72;;;0.48;81.29
39267;BME280;24967;51.154;13.812;2023-03-16T06:46:30;100152.94;;;0.59;81.24
39267;BME280;24967;51.154;13.812;2023-03-16T06:48:59;100155.09;;;0.68;81.15
39267;BME280;24967;51.154;13.812;2023-03-16T06:51:26;100154.59;;;0.79;81.16
39267;BME280;24967;51.154;13.812;2023-03-16T06:53:52;100149.06;;;0.85;81.34
39267;BME280;24967;51.154;13.812;2023-03-16T06:56:19;100148.53;;;0.79;82.58
39267;BME280;24967;51.154;13.812;2023-03-16T06:58:45;100152.75;;;0.81;83.78
39267;BME280;24967;51.154;13.812;2023-03-16T07:01:12;100159.09;;;0.95;84.57
39267;BME280;24967;51.154;13.812;2023-03-16T07:03:38;100154.16;;;1.06;84.60
39267;BME280;24967;51.154;13.812;2023-03-16T07:06:07;100151.88;;;1.17;84.84
39267;BME280;24967;51.154;13.812;2023-03-16T07:08:34;100159.97;;;1.30;84.14
39267;BME280;24967;51.154;13.812;2023-03-16T07:11:00;100163.22;;;1.35;83.30
39267;BME280;24967;51.154;13.812;2023-03-16T07:13:27;100156.81;;;1.58;83.21
39267;BME280;24967;51.154;13.812;2023-03-16T07:15:53;100157.88;;;1.54;82.60
39267;BME280;24967;51.154;13.812;2023-03-16T07:18:20;100161.94;;;1.77;82.37
39267;BME280;24967;51.154;13.812;2023-03-16T07:20:46;100165.03;;;1.85;80.78
39267;BME280;24967;51.154;13.812;2023-03-16T07:23:14;100167.75;;;1.99;81.53
39267;BME280;24967;51.154;13.812;2023-03-16T07:25:40;100167.38;;;2.07;80.84
39267;BME280;24967;51.154;13.812;2023-03-16T07:28:08;100171.19;;;2.17;80.83
39267;BME280;24967;51.154;13.812;2023-03-16T07:30:35;100159.19;;;2.29;79.39
39267;BME280;24967;51.154;13.812;2023-03-16T07:33:02;100171.97;;;2.51;78.94
39267;BME280;24967;51.154;13.812;2023-03-16T07:35:29;100169.94;;;2.72;77.71
39267;BME280;24967;51.154;13.812;2023-03-16T07:37:56;100166.22;;;2.92;75.46
39267;BME280;24967;51.154;13.812;2023-03-16T07:40:24;100165.84;;;3.14;73.75
39267;BME280;24967;51.154;13.812;2023-03-16T07:42:50;100167.63;;;3.13;73.66
39267;BME280;24967;51.154;13.812;2023-03-16T07:45:17;100163.34;;;3.27;73.76
39267;BME280;24967;51.154;13.812;2023-03-16T07:47:43;100160.78;;;3.41;72.01
39267;BME280;24967;51.154;13.812;2023-03-16T07:50:11;100170.09;;;3.47;72.44
39267;BME280;24967;51.154;13.812;2023-03-16T07:52:37;100169.09;;;3.63;71.00
39267;BME280;24967;51.154;13.812;2023-03-16T07:55:05;100173.69;;;3.74;70.21
39267;BME280;24967;51.154;13.812;2023-03-16T07:57:33;100172.88;;;3.43;69.91
39267;BME280;24967;51.154;13.812;2023-03-16T08:00:00;100170.84;;;3.49;69.96
39267;BME280;24967;51.154;13.812;2023-03-16T08:02:29;100172.81;;;3.45;70.51
39267;BME280;24967;51.154;13.812;2023-03-16T08:04:56;100165.22;;;3.69;69.26
39267;BME280;24967;51.154;13.812;2023-03-16T08:07:22;100174.00;;;3.84;68.98
39267;BME280;24967;51.154;13.812;2023-03-16T08:09:49;100179.34;;;3.82;68.96
39267;BME280;24967;51.154;13.812;2023-03-16T08:12:15;100187.34;;;3.95;69.12
39267;BME280;24967;51.154;13.812;2023-03-16T08:14:43;100180.13;;;3.99;69.20
39267;BME280;24967;51.154;13.812;2023-03-16T08:17:11;100174.59;;;4.03;66.91
39267;BME280;24967;51.154;13.812;2023-03-16T08:19:38;100176.84;;;4.24;66.63
39267;BME280;24967;51.154;13.812;2023-03-16T08:22:05;100173.16;;;4.26;66.68
39267;BME280;24967;51.154;13.812;2023-03-16T08:24:32;100178.53;;;4.39;66.25
39267;BME280;24967;51.154;13.812;2023-03-16T08:26:59;100175.59;;;4.44;67.48
39267;BME280;24967;51.154;13.812;2023-03-16T08:29:25;100169.94;;;4.64;70.32
39267;BME280;24967;51.154;13.812;2023-03-16T08:31:53;100173.91;;;4.84;66.49
39267;BME280;24967;51.154;13.812;2023-03-16T08:34:20;100175.97;;;4.93;67.81
39267;BME280;24967;51.154;13.812;2023-03-16T08:36:46;100178.41;;;5.23;67.90
39267;BME280;24967;51.154;13.812;2023-03-16T08:39:13;100175.88;;;5.35;63.25
39267;BME280;24967;51.154;13.812;2023-03-16T08:41:40;100176.13;;;5.17;63.99
39267;BME280;24967;51.154;13.812;2023-03-16T08:44:07;100186.53;;;5.33;67.41
39267;BME280;24967;51.154;13.812;2023-03-16T08:46:33;100174.16;;;5.61;70.49
39267;BME280;24967;51.154;13.812;2023-03-16T08:49:01;100173.19;;;5.74;68.82
39267;BME280;24967;51.154;13.812;2023-03-16T08:51:28;100182.91;;;5.74;65.37
39267;BME280;24967;51.154;13.812;2023-03-16T08:53:55;100179.88;;;5.93;66.26
39267;BME280;24967;51.154;13.812;2023-03-16T08:56:22;100177.91;;;5.96;62.76
39267;BME280;24967;51.154;13.812;2023-03-16T08:58:48;100190.13;;;6.36;58.72
39267;BME280;24967;51.154;13.812;2023-03-16T09:01:16;100188.78;;;6.17;60.16
39267;BME280;24967;51.154;13.812;2023-03-16T09:03:43;100193.63;;;6.24;57.86
39267;BME280;24967;51.154;13.812;2023-03-16T09:06:13;100183.28;;;6.21;58.18
39267;BME280;24967;51.154;13.812;2023-03-16T09:08:40;100181.84;;;6.53;57.60
39267;BME280;24967;51.154;13.812;2023-03-16T09:11:10;100187.44;;;6.61;59.78
39267;BME280;24967;51.154;13.812;2023-03-16T09:13:39;100186.41;;;6.88;58.84
39267;BME280;24967;51.154;13.812;2023-03-16T09:16:07;100193.22;;;7.03;55.60
39267;BME280;24967;51.154;13.812;2023-03-16T09:18:34;100189.22;;;6.98;54.60
39267;BME280;24967;51.154;13.812;2023-03-16T09:21:03;100188.00;;;7.15;57.95
39267;BME280;24967;51.154;13.812;2023-03-16T09:23:32;100195.72;;;7.29;57.74
39267;BME280;24967;51.154;13.812;2023-03-16T09:26:02;100191.25;;;7.42;56.27
39267;BME280;24967;51.154;13.812;2023-03-16T09:28:32;100197.84;;;7.72;56.62
39267;BME280;24967;51.154;13.812;2023-03-16T09:31:00;100197.13;;;7.92;55.79
39267;BME280;24967;51.154;13.812;2023-03-16T09:33:27;100182.47;;;8.11;55.39
39267;BME280;24967;51.154;13.812;2023-03-16T09:35:54;100191.81;;;8.39;52.70
39267;BME280;24967;51.154;13.812;2023-03-16T09:38:23;100185.78;;;8.48;51.55
39267;BME280;24967;51.154;13.812;2023-03-16T09:40:57;100186.28;;;8.42;53.00
39267;BME280;24967;51.154;13.812;2023-03-16T09:43:59;100183.97;;;8.60;50.10
39267;BME280;24967;51.154;13.812;2023-03-16T09:46:33;100189.97;;;8.62;45.54
39267;BME280;24967;51.154;13.812;2023-03-16T09:49:02;100186.88;;;8.45;44.59
39267;BME280;24967;51.154;13.812;2023-03-16T09:51:35;100187.56;;;8.36;45.83
39267;BME280;24967;51.154;13.812;2023-03-16T09:54:12;100192.38;;;8.31;48.52
39267;BME280;24967;51.154;13.812;2023-03-16T09:56:42;100188.41;;;8.37;45.11
39267;BME280;24967;51.154;13.812;2023-03-16T09:59:10;100172.88;;;8.55;46.71
39267;BME280;24967;51.154;13.812;2023-03-16T10:01:42;100185.41;;;8.64;45.87
39267;BME280;24967;51.154;13.812;2023-03-16T10:04:22;100183.25;;;8.46;47.64
39267;BME280;24967;51.154;13.812;2023-03-16T10:06:58;100173.31;;;8.82;46.79
39267;BME280;24967;51.154;13.812;2023-03-16T10:09:31;100180.03;;;8.98;45.49
39267;BME280;24967;51.154;13.812;2023-03-16T10:12:01;100178.28;;;9.19;45.00
39267;BME280;24967;51.154;13.812;2023-03-16T10:14:36;100177.44;;;9.51;47.63
39267;BME280;24967;51.154;13.812;2023-03-16T10:17:08;100174.34;;;9.88;44.13
39267;BME280;24967;51.154;13.812;2023-03-16T10:19:41;100177.03;;;9.55;45.43
39267;BME280;24967;51.154;13.812;2023-03-16T10:22:16;100183.19;;;9.56;47.32
39267;BME280;24967;51.154;13.812;2023-03-16T10:24:52;100181.84;;;9.61;44.75
39267;BME280;24967;51.154;13.812;2023-03-16T10:27:28;100175.16;;;10.09;48.80
39267;BME280;24967;51.154;13.812;2023-03-16T10:29:55;100171.69;;;10.39;47.10
39267;BME280;24967;51.154;13.812;2023-03-16T10:32:22;100181.88;;;10.34;46.87
39267;BME280;24967;51.154;13.812;2023-03-16T10:34:54;100179.16;;;10.65;44.97
39267;BME280;24967;51.154;13.812;2023-03-16T10:37:23;100174.19;;;10.71;44.27
39267;BME280;24967;51.154;13.812;2023-03-16T10:39:49;100168.88;;;10.91;44.02
39267;BME280;24967;51.154;13.812;2023-03-16T10:42:18;100175.56;;;10.66;42.95
39267;BME280;24967;51.154;13.812;2023-03-16T10:44:47;100166.97;;;10.52;43.45
39267;BME280;24967;51.154;13.812;2023-03-16T10:47:18;100165.75;;;10.66;42.73
39267;BME280;24967;51.154;13.812;2023-03-16T10:49:48;100166.03;;;10.73;44.33
39267;BME280;24967;51.154;13.812;2023-03-16T10:52:18;100166.94;;;10.43;40.57
39267;BME280;24967;51.154;13.812;2023-03-16T10:54:48;100166.31;;;10.60;43.62
39267;BME280;24967;51.154;13.812;2023-03-16T10:57:22;100158.91;;;10.73;44.05
39267;BME280;24967;51.154;13.812;2023-03-16T10:59:52;100162.75;;;11.10;43.97
39267;BME280;24967;51.154;13.812;2023-03-16T11:02:21;100157.41;;;11.10;42.37
39267;BME280;24967;51.154;13.812;2023-03-16T11:04:48;100150.44;;;11.18;41.26
39267;BME280;24967;51.154;13.812;2023-03-16T11:07:16;100156.31;;;11.51;41.37
39267;BME280;24967;51.154;13.812;2023-03-16T11:09:44;100143.16;;;11.11;39.68
39267;BME280;24967;51.154;13.812;2023-03-16T11:12:13;100147.38;;;11.23;44.76
39267;BME280;24967;51.154;13.812;2023-03-16T11:14:42;100141.59;;;11.28;43.10
39267;BME280;24967;51.154;13.812;2023-03-16T11:17:13;100134.34;;;11.20;41.45
39267;BME280;24967;51.154;13.812;2023-03-16T11:19:48;100136.41;;;11.16;40.60
39267;BME280;24967;51.154;13.812;2023-03-16T11:22:18;100135.28;;;11.48;42.91
39267;BME280;24967;51.154;13.812;2023-03-16T11:24:49;100127.00;;;11.61;41.34
39267;BME280;24967;51.154;13.812;2023-03-16T11:27:21;100131.06;;;11.55;42.16
39267;BME280;24967;51.154;13.812;2023-03-16T11:29:58;100119.75;;;11.24;42.09
39267;BME280;24967;51.154;13.812;2023-03-16T11:32:33;100112.56;;;11.63;39.35
39267;BME280;24967;51.154;13.812;2023-03-16T11:35:01;100118.22;;;11.21;40.07
39267;BME280;24967;51.154;13.812;2023-03-16T11:37:40;100116.22;;;11.53;41.62
39267;BME280;24967;51.154;13.812;2023-03-16T11:40:23;100118.31;;;11.59;40.24
39267;BME280;24967;51.154;13.812;2023-03-16T11:43:00;100118.19;;;11.60;41.03
39267;BME280;24967;51.154;13.812;2023-03-16T11:45:34;100111.91;;;12.08;40.42
39267;BME280;24967;51.154;13.812;2023-03-16T11:48:23;100113.13;;;11.67;38.85
39267;BME280;24967;51.154;13.812;2023-03-16T11:51:01;100114.63;;;11.89;42.44
39267;BME280;24967;51.154;13.812;2023-03-16T11:53:47;100108.16;;;11.91;40.78
39267;BME280;24967;51.154;13.812;2023-03-16T11:56:22;100105.34;;;12.30;41.22
39267;BME280;24967;51.154;13.812;2023-03-16T11:59:20;100098.81;;;11.78;36.06
39267;BME280;24967;51.154;13.812;2023-03-16T12:02:05;100102.84;;;11.91;37.84
39267;BME280;24967;51.154;13.812;2023-03-16T12:04:55;100089.50;;;12.01;38.32
39267;BME280;24967;51.154;13.812;2023-03-16T12:07:32;100088.69;;;11.91;39.56
39267;BME280;24967;51.154;13.812;2023-03-16T12:10:23;100089.88;;;12.06;38.12
39267;BME280;24967;51.154;13.812;2023-03-16T12:13:08;100089.59;;;12.37;39.44
39267;BME280;24967;51.154;13.812;2023-03-16T12:15:42;100081.72;;;12.18;38.73
39267;BME280;24967;51.154;13.812;2023-03-16T12:18:15;100080.41;;;12.22;37.51
39267;BME280;24967;51.154;13.812;2023-03-16T12:20:47;100088.97;;;11.88;37.01
39267;BME280;24967;51.154;13.812;2023-03-16T12:23:19;100076.44;;;12.08;36.78
39267;BME280;24967;51.154;13.812;2023-03-16T12:25:49;100067.41;;;12.64;37.76
39267;BME280;24967;51.154;13.812;2023-03-16T12:28:21;100070.88;;;12.19;35.55
39267;BME280;24967;51.154;13.812;2023-03-16T12:30:53;100062.03;;;11.91;35.48
39267;BME280;24967;51.154;13.812;2023-03-16T12:33:33;100063.06;;;11.70;37.03
39267;BME280;24967;51.154;13.812;2023-03-16T12:36:12;100063.50;;;11.66;36.00
39267;BME280;24967;51.154;13.812;2023-03-16T12:38:51;100065.91;;;12.34;37.39
39267;BME280;24967;51.154;13.812;2023-03-16T12:41:26;100050.25;;;11.94;35.81
39267;BME280;24967;51.154;13.812;2023-03-16T12:44:05;100059.56;;;12.17;37.48
39267;BME280;24967;51.154;13.812;2023-03-16T12:46:41;100060.03;;;12.03;37.22
39267;BME280;24967;51.154;13.812;2023-03-16T12:49:11;100049.31;;;11.75;34.66
39267;BME280;24967;51.154;13.812;2023-03-16T12:51:41;100048.88;;;12.17;35.82
39267;BME280;24967;51.154;13.812;2023-03-16T12:54:18;100052.38;;;12.18;36.40
39267;BME280;24967;51.154;13.812;2023-03-16T12:56:47;100048.53;;;12.02;34.30
39267;BME280;24967;51.154;13.812;2023-03-16T12:59:16;100048.19;;;12.15;36.34
39267;BME280;24967;51.154;13.812;2023-03-16T13:01:44;100050.94;;;12.69;36.70